createdAt,value
2022-10-04T00:01:54.987Z,72.71
2022-10-04T00:04:29.239Z,72.97
2022-10-04T00:07:06.743Z,73.01
2022-10-04T00:09:46.719Z,73.03
2022-10-04T00:12:23.668Z,73.02
2022-10-04T00:14:57.848Z,73.05
2022-10-04T00:17:31.687Z,72.94
2022-10-04T00:20:03.231Z,73.00
2022-10-04T00:22:34.813Z,73.03
2022-10-04T00:25:20.582Z,72.83
2022-10-04T00:28:25.659Z,72.82
2022-10-04T00:31:21.344Z,72.96
2022-10-04T00:33:54.599Z,73.00
2022-10-04T00:36:46.625Z,73.02
2022-10-04T00:39:39.192Z,72.80
2022-10-04T00:42:39.632Z,72.67
2022-10-04T00:45:17.746Z,72.89
2022-10-04T00:48:07.322Z,72.86
2022-10-04T00:50:45.480Z,72.62
2022-10-04T00:53:24.726Z,72.91
2022-10-04T00:55:59.895Z,72.72
2022-10-04T00:58:35.968Z,72.89
2022-10-04T01:01:08.061Z,72.69
2022-10-04T01:03:42.682Z,72.67
2022-10-04T01:06:14.927Z,72.83
2022-10-04T01:08:50.466Z,72.89
2022-10-04T01:11:25.371Z,72.93
2022-10-04T01:14:02.583Z,72.93
2022-10-04T01:16:36.293Z,72.95
2022-10-04T01:19:31.284Z,73.10
2022-10-04T01:22:11.435Z,73.03
2022-10-04T01:24:43.725Z,73.06
2022-10-04T01:27:36.467Z,72.57
2022-10-04T01:30:10.960Z,72.63
2022-10-04T01:32:44.988Z,72.66
2022-10-04T01:35:20.361Z,72.54
2022-10-04T01:37:51.044Z,72.64
2022-10-04T01:40:21.821Z,72.53
2022-10-04T01:42:55.758Z,72.60
2022-10-04T01:45:31.457Z,72.56
2022-10-04T01:48:06.338Z,72.66
2022-10-04T01:50:41.302Z,72.62
2022-10-04T01:53:19.428Z,72.74
2022-10-04T01:55:53.212Z,72.69
2022-10-04T01:58:26.220Z,73.15
2022-10-04T02:01:02.548Z,72.89
2022-10-04T02:03:36.911Z,73.01
2022-10-04T02:06:10.864Z,72.76
2022-10-04T02:08:47.521Z,72.79
2022-10-04T02:11:21.905Z,72.96
2022-10-04T02:13:56.005Z,72.99
2022-10-04T02:16:28.215Z,72.95
2022-10-04T02:19:00.085Z,73.26
2022-10-04T02:21:32.124Z,73.14
2022-10-04T02:24:03.453Z,73.25
2022-10-04T02:26:34.130Z,73.13
2022-10-04T02:29:05.128Z,72.91
2022-10-04T02:31:56.270Z,72.81
2022-10-04T02:34:27.343Z,72.84
2022-10-04T02:36:58.286Z,73.01
2022-10-04T02:39:33.650Z,73.07
2022-10-04T02:42:13.703Z,73.06
2022-10-04T02:44:52.680Z,73.12
2022-10-04T02:47:26.445Z,73.11
2022-10-04T02:50:00.424Z,73.20
2022-10-04T02:52:35.840Z,73.16
2022-10-04T02:55:11.797Z,73.35
2022-10-04T02:57:44.724Z,73.15
2022-10-04T03:00:23.355Z,73.09
2022-10-04T03:03:18.674Z,72.93
2022-10-04T03:05:55.012Z,73.01
2022-10-04T03:08:26.193Z,73.16
2022-10-04T03:10:58.116Z,73.10
2022-10-04T03:13:29.536Z,73.09
2022-10-04T03:16:00.682Z,72.95
2022-10-04T03:18:32.811Z,72.87
2022-10-04T03:21:06.742Z,72.98
2022-10-04T03:23:39.411Z,73.51
2022-10-04T03:26:21.995Z,73.41
2022-10-04T03:28:53.142Z,73.07
2022-10-04T03:31:24.647Z,72.85
2022-10-04T03:33:57.587Z,72.86
2022-10-04T03:36:29.419Z,72.81
2022-10-04T03:39:00.966Z,72.79
2022-10-04T03:41:33.172Z,73.00
2022-10-04T03:44:05.169Z,73.13
2022-10-04T03:46:36.973Z,73.02
2022-10-04T03:49:09.536Z,73.08
2022-10-04T03:51:39.484Z,73.04
2022-10-04T03:54:15.551Z,72.99
2022-10-04T03:56:47.762Z,73.40
2022-10-04T03:59:20.104Z,73.20
2022-10-04T04:01:57.367Z,73.38
2022-10-04T04:04:35.758Z,73.26
2022-10-04T04:07:13.343Z,73.14
2022-10-04T04:09:48.606Z,73.14
2022-10-04T04:12:23.011Z,73.52
2022-10-04T04:14:55.062Z,73.38
2022-10-04T04:17:41.611Z,73.18
2022-10-04T04:20:27.699Z,73.04
2022-10-04T04:23:03.002Z,73.03
2022-10-04T04:25:38.220Z,73.30
2022-10-04T04:28:22.439Z,73.28
2022-10-04T04:30:57.758Z,73.47
2022-10-04T04:33:32.584Z,73.53
2022-10-04T04:36:08.480Z,73.61
2022-10-04T04:38:59.528Z,73.31
2022-10-04T04:41:33.032Z,73.47
2022-10-04T04:44:04.364Z,73.31
2022-10-04T04:46:35.057Z,73.20
2022-10-04T04:49:07.413Z,73.30
2022-10-04T04:51:38.671Z,73.51
2022-10-04T04:54:10.042Z,73.25
2022-10-04T04:56:44.017Z,73.26
2022-10-04T04:59:16.644Z,73.03
2022-10-04T05:01:50.306Z,73.00
2022-10-04T05:04:23.194Z,72.70
2022-10-04T05:07:05.357Z,72.50
2022-10-04T05:09:38.636Z,72.73
2022-10-04T05:12:17.296Z,72.56
2022-10-04T05:14:52.282Z,72.69
2022-10-04T05:17:26.533Z,72.77
2022-10-04T05:20:02.217Z,72.74
2022-10-04T05:22:34.994Z,72.91
2022-10-04T05:25:11.330Z,73.45
2022-10-04T05:27:44.965Z,73.24
2022-10-04T05:30:33.243Z,72.41
2022-10-04T05:33:07.749Z,72.10
2022-10-04T05:35:52.015Z,71.59
2022-10-04T05:38:35.870Z,71.23
2022-10-04T05:41:10.842Z,70.40
2022-10-04T05:43:50.429Z,70.22
2022-10-04T05:46:27.317Z,70.38
2022-10-04T05:49:02.277Z,70.30
2022-10-04T05:51:37.607Z,70.45
2022-10-04T05:54:11.311Z,70.72
2022-10-04T05:57:09.627Z,70.81
2022-10-04T05:59:52.697Z,70.91
2022-10-04T06:02:37.091Z,70.86
2022-10-04T06:05:16.200Z,71.09
2022-10-04T06:07:55.448Z,71.18
2022-10-04T06:10:45.259Z,71.39
2022-10-04T06:13:30.122Z,71.34
2022-10-04T06:16:15.632Z,71.43
2022-10-04T06:19:05.747Z,71.35
2022-10-04T06:21:47.764Z,71.47
2022-10-04T06:24:26.810Z,71.30
2022-10-04T06:27:04.433Z,71.50
2022-10-04T06:29:41.572Z,71.46
2022-10-04T06:32:32.132Z,71.39
2022-10-04T06:35:17.751Z,71.36
2022-10-04T06:38:16.931Z,71.47
2022-10-04T06:41:00.288Z,71.27
2022-10-04T06:43:51.686Z,71.32
2022-10-04T06:46:28.017Z,71.15
2022-10-04T06:49:27.530Z,71.48
2022-10-04T06:52:17.924Z,71.28
2022-10-04T06:55:15.098Z,71.10
2022-10-04T06:58:12.973Z,70.98
2022-10-04T07:00:53.773Z,71.07
2022-10-04T07:03:28.681Z,70.95
2022-10-04T07:06:03.360Z,70.90
2022-10-04T07:08:40.752Z,71.08
2022-10-04T07:11:18.479Z,70.72
2022-10-04T07:13:57.645Z,70.65
2022-10-04T07:16:35.534Z,70.78
2022-10-04T07:19:24.938Z,70.68
2022-10-04T07:22:04.780Z,70.68
2022-10-04T07:24:49.973Z,70.67
2022-10-04T07:27:27.365Z,70.48
2022-10-04T07:30:00.111Z,70.43
2022-10-04T07:32:34.349Z,70.47
2022-10-04T07:35:16.905Z,70.22
2022-10-04T07:37:54.723Z,70.17
2022-10-04T07:40:31.859Z,70.21
2022-10-04T07:43:08.188Z,70.19
2022-10-04T07:45:42.778Z,70.20
2022-10-04T07:48:17.770Z,69.94
2022-10-04T07:50:59.074Z,69.64
2022-10-04T07:53:39.430Z,69.71
2022-10-04T07:56:17.011Z,69.44
2022-10-04T07:59:02.156Z,69.54
2022-10-04T08:01:40.744Z,69.00
2022-10-04T08:04:31.587Z,68.94
2022-10-04T08:07:04.606Z,69.01
2022-10-04T08:09:47.774Z,68.89
2022-10-04T08:12:23.993Z,68.83
2022-10-04T08:15:04.611Z,68.87
2022-10-04T08:17:48.683Z,68.79
2022-10-04T08:20:37.595Z,68.82
2022-10-04T08:23:38.313Z,68.47
2022-10-04T08:26:29.512Z,68.15
2022-10-04T08:29:34.569Z,67.80
2022-10-04T08:32:14.648Z,68.16
2022-10-04T08:35:01.891Z,68.31
2022-10-04T08:37:46.777Z,68.24
2022-10-04T08:40:46.650Z,68.18
2022-10-04T08:43:42.258Z,68.02
2022-10-04T08:46:59.275Z,68.16
2022-10-04T08:49:54.620Z,67.78
2022-10-04T08:52:42.925Z,68.09
2022-10-04T08:55:50.245Z,68.07
2022-10-04T08:58:43.736Z,67.88
2022-10-04T09:01:47.395Z,67.92
2022-10-04T09:04:57.496Z,67.91
2022-10-04T09:07:53.858Z,67.55
2022-10-04T09:10:47.923Z,67.30
2022-10-04T09:13:41.587Z,67.51
2022-10-04T09:16:25.386Z,67.34
2022-10-04T09:19:23.078Z,67.18
2022-10-04T09:22:18.109Z,67.22
2022-10-04T09:25:19.154Z,67.11
2022-10-04T09:28:08.733Z,67.17
2022-10-04T09:30:53.666Z,66.85
2022-10-04T09:33:54.575Z,66.71
2022-10-04T09:36:49.375Z,66.78
2022-10-04T09:39:40.141Z,66.50
2022-10-04T09:42:39.336Z,66.29
2022-10-04T09:45:40.315Z,65.96
2022-10-04T09:48:26.630Z,65.78
2022-10-04T09:51:15.122Z,65.35
2022-10-04T09:53:56.123Z,65.01
2022-10-04T09:57:14.275Z,65.09
2022-10-04T10:00:23.272Z,64.76
2022-10-04T10:03:19.018Z,64.06
2022-10-04T10:06:14.935Z,63.19
2022-10-04T10:08:57.190Z,62.72
2022-10-04T10:11:59.473Z,63.32
2022-10-04T10:15:08.948Z,63.46
2022-10-04T10:17:49.854Z,62.68
2022-10-04T10:20:50.868Z,62.98
2022-10-04T10:23:59.486Z,62.67
2022-10-04T10:26:53.713Z,62.48
2022-10-04T10:29:51.098Z,62.35
2022-10-04T10:32:43.254Z,62.17
2022-10-04T10:35:28.073Z,61.98
2022-10-04T10:38:25.147Z,61.95
2022-10-04T10:41:28.207Z,62.10
2022-10-04T10:44:26.683Z,61.49
2022-10-04T10:47:13.167Z,61.49
2022-10-04T10:53:04.959Z,62.09
2022-10-04T10:56:08.670Z,62.35
2022-10-04T10:59:18.948Z,62.07
2022-10-04T11:02:20.174Z,62.01
2022-10-04T11:04:59.254Z,62.01
2022-10-04T11:07:52.851Z,62.08
2022-10-04T11:11:03.425Z,62.04
2022-10-04T11:14:14.152Z,61.67
2022-10-04T11:17:20.929Z,61.69
2022-10-04T11:20:46.071Z,61.64
2022-10-04T11:23:53.440Z,61.69
2022-10-04T11:27:03.204Z,61.98
2022-10-04T11:29:55.897Z,61.40
2022-10-04T11:33:10.024Z,60.88
2022-10-04T11:35:55.608Z,60.62
2022-10-04T11:38:49.188Z,60.60
2022-10-04T11:41:28.090Z,60.13
2022-10-04T11:44:24.514Z,59.95
2022-10-04T11:46:57.309Z,59.80
2022-10-04T11:49:52.746Z,59.84
2022-10-04T11:52:51.769Z,59.33
2022-10-04T11:55:58.492Z,59.00
2022-10-04T11:58:40.392Z,59.31
2022-10-04T12:01:46.985Z,59.28
2022-10-04T12:04:47.311Z,59.19
2022-10-04T12:07:43.669Z,58.79
2022-10-04T12:10:20.890Z,58.85
2022-10-04T12:13:16.875Z,59.04
2022-10-04T12:16:29.691Z,59.09
2022-10-04T12:19:24.017Z,59.24
2022-10-04T12:22:01.623Z,59.42
2022-10-04T12:25:17.227Z,59.71
2022-10-04T12:28:16.074Z,59.95
2022-10-04T12:31:03.909Z,59.73
2022-10-04T12:33:43.755Z,59.43
2022-10-04T12:36:31.844Z,59.83
2022-10-04T12:39:20.623Z,59.72
2022-10-04T12:42:00.063Z,59.28
2022-10-04T12:44:43.219Z,58.89
2022-10-04T12:47:45.931Z,58.41
2022-10-04T12:50:27.144Z,58.22
2022-10-04T12:53:07.368Z,58.23
2022-10-04T12:56:01.811Z,58.41
2022-10-04T12:58:47.837Z,58.38
2022-10-04T13:01:28.135Z,58.37
2022-10-04T13:04:15.857Z,58.43
2022-10-04T13:06:59.631Z,58.38
2022-10-04T13:09:55.160Z,57.77
2022-10-04T13:12:47.074Z,57.71
2022-10-04T13:17:21.813Z,57.78
2022-10-04T13:18:28.063Z,57.58
2022-10-04T13:21:04.559Z,57.53
2022-10-04T13:23:56.594Z,57.61
2022-10-04T13:26:48.768Z,57.71
2022-10-04T13:29:27.695Z,57.75
2022-10-04T13:32:04.597Z,57.24
2022-10-04T13:34:44.081Z,57.62
2022-10-04T13:37:33.447Z,57.87
2022-10-04T13:40:32.573Z,58.09
2022-10-04T13:43:28.771Z,58.21
2022-10-04T13:46:20.038Z,57.93
2022-10-04T13:49:01.789Z,58.25
2022-10-04T13:52:18.163Z,58.22
2022-10-04T13:55:18.523Z,58.50
2022-10-04T13:57:57.041Z,58.45
2022-10-04T14:00:49.997Z,59.06
2022-10-04T14:03:40.118Z,59.10
2022-10-04T14:06:43.482Z,59.10
2022-10-04T14:09:29.178Z,59.05
2022-10-04T14:12:33.878Z,58.66
2022-10-04T14:15:44.372Z,58.67
2022-10-04T14:18:51.140Z,58.93
2022-10-04T14:22:06.542Z,58.63
2022-10-04T14:24:58.971Z,59.07
2022-10-04T14:27:50.557Z,58.32
2022-10-04T14:30:24.725Z,57.82
2022-10-04T14:33:32.881Z,57.68
2022-10-04T14:36:31.348Z,57.71
2022-10-04T14:39:20.439Z,57.95
2022-10-04T14:42:25.306Z,57.89
2022-10-04T14:45:18.301Z,57.65
2022-10-04T14:48:27.325Z,57.87
2022-10-04T14:51:12.880Z,58.08
2022-10-04T14:53:56.382Z,57.59
2022-10-04T14:56:53.597Z,57.82
2022-10-04T14:59:48.297Z,57.69
2022-10-04T15:02:49.411Z,57.40
2022-10-04T15:05:44.286Z,57.50
2022-10-04T15:08:43.894Z,57.25
2022-10-04T15:11:20.155Z,57.21
2022-10-04T15:13:58.850Z,57.60
2022-10-04T15:16:45.054Z,57.32
2022-10-04T15:19:31.597Z,57.21
2022-10-04T15:22:14.422Z,57.24
2022-10-04T15:24:51.092Z,56.86
2022-10-04T15:27:46.606Z,56.89
2022-10-04T15:30:27.510Z,56.87
2022-10-04T15:33:15.771Z,57.20
2022-10-04T15:36:10.907Z,56.90
2022-10-04T15:38:50.707Z,56.95
2022-10-04T15:41:31.851Z,57.54
2022-10-04T15:44:31.254Z,57.55
2022-10-04T15:47:16.203Z,57.93
2022-10-04T15:50:04.048Z,58.07
2022-10-04T15:52:58.974Z,57.66
2022-10-04T15:55:50.355Z,57.70
2022-10-04T15:58:52.000Z,57.98
2022-10-04T16:01:42.732Z,58.89
2022-10-04T16:04:42.910Z,59.43
2022-10-04T16:07:34.521Z,59.12
2022-10-04T16:10:18.642Z,60.07
2022-10-04T16:13:33.419Z,60.19
2022-10-04T16:17:00.017Z,60.55
2022-10-04T16:19:53.834Z,60.57
2022-10-04T16:22:31.930Z,60.73
2022-10-04T16:25:38.040Z,60.91
2022-10-04T16:28:23.220Z,61.15
2022-10-04T16:31:25.892Z,61.48
2022-10-04T16:34:03.894Z,61.84
2022-10-04T16:36:53.446Z,61.81
2022-10-04T16:40:06.367Z,62.13
2022-10-04T16:42:55.963Z,62.41
2022-10-04T16:45:49.142Z,62.48
2022-10-04T16:48:33.097Z,62.66
2022-10-04T16:51:33.495Z,62.73
2022-10-04T16:54:10.886Z,62.70
2022-10-04T16:57:15.932Z,62.41
2022-10-04T16:59:54.160Z,62.36
2022-10-04T17:02:58.574Z,62.70
2022-10-04T17:05:56.163Z,63.30
2022-10-04T17:08:43.156Z,63.61
2022-10-04T17:11:35.752Z,64.12
2022-10-04T17:14:22.931Z,64.23
2022-10-04T17:16:58.581Z,64.40
2022-10-04T17:19:35.704Z,64.72
2022-10-04T17:22:18.564Z,65.05
2022-10-04T17:25:00.760Z,65.31
2022-10-04T17:27:49.235Z,65.61
2022-10-04T17:30:23.126Z,65.47
2022-10-04T17:33:27.070Z,65.54
2022-10-04T17:36:30.157Z,65.66
2022-10-04T17:39:13.534Z,65.94
2022-10-04T17:41:59.363Z,65.79
2022-10-04T17:44:48.655Z,65.97
2022-10-04T17:47:48.546Z,66.10
2022-10-04T17:50:46.767Z,66.70
2022-10-04T17:53:41.197Z,66.68
2022-10-04T17:56:14.200Z,66.83
2022-10-04T17:58:52.052Z,66.87
2022-10-04T18:01:31.844Z,66.92
2022-10-04T18:04:17.138Z,66.97
2022-10-04T18:06:56.226Z,67.18
2022-10-04T18:09:33.516Z,66.95
2022-10-04T18:12:08.267Z,67.05
2022-10-04T18:15:04.170Z,67.22
2022-10-04T18:17:39.788Z,67.44
2022-10-04T18:20:30.865Z,67.41
2022-10-04T18:23:15.870Z,67.62
2022-10-04T18:25:47.046Z,67.71
2022-10-04T18:28:23.224Z,67.83
2022-10-04T18:31:00.751Z,67.87
2022-10-04T18:33:50.168Z,67.82
2022-10-04T18:36:24.539Z,68.06
2022-10-04T18:39:18.631Z,67.97
2022-10-04T18:42:01.457Z,68.00
2022-10-04T18:44:45.718Z,68.22
2022-10-04T18:47:30.252Z,68.52
2022-10-04T18:50:02.734Z,68.63
2022-10-04T18:52:44.976Z,68.85
2022-10-04T18:55:27.890Z,69.19
2022-10-04T18:58:24.995Z,69.15
2022-10-04T19:01:25.782Z,69.34
2022-10-04T19:04:03.364Z,69.50
2022-10-04T19:06:37.108Z,69.54
2022-10-04T19:09:20.117Z,69.48
2022-10-04T19:11:57.281Z,69.47
2022-10-04T19:14:41.939Z,69.63
2022-10-04T19:17:26.392Z,69.61
2022-10-04T19:20:03.826Z,69.63
2022-10-04T19:22:50.891Z,69.42
2022-10-04T19:25:34.842Z,69.50
2022-10-04T19:28:11.757Z,69.53
2022-10-04T19:30:55.203Z,69.55
2022-10-04T19:33:41.721Z,69.51
2022-10-04T19:36:25.781Z,69.52
2022-10-04T19:39:12.634Z,69.53
2022-10-04T19:41:52.850Z,69.58
2022-10-04T19:44:43.182Z,69.51
2022-10-04T19:47:29.188Z,69.65
2022-10-04T19:50:08.994Z,69.42
2022-10-04T19:52:46.700Z,69.58
2022-10-04T19:55:25.048Z,69.62
2022-10-04T19:58:07.444Z,69.61
2022-10-04T20:00:38.155Z,69.56
2022-10-04T20:03:13.933Z,69.57
2022-10-04T20:05:50.108Z,69.55
2022-10-04T20:08:51.192Z,69.40
2022-10-04T20:11:25.127Z,69.52
2022-10-04T20:14:31.683Z,69.32
2022-10-04T20:17:09.014Z,69.45
2022-10-04T20:19:44.439Z,69.74
2022-10-04T20:22:52.652Z,69.99
2022-10-04T20:25:53.768Z,70.37
2022-10-04T20:28:47.103Z,70.61
2022-10-04T20:31:48.464Z,70.73
2022-10-04T20:34:48.283Z,71.15
2022-10-04T20:37:19.463Z,71.06
2022-10-04T20:39:59.788Z,71.05
2022-10-04T20:42:36.016Z,71.10
2022-10-04T20:45:22.277Z,71.18
2022-10-04T20:47:57.629Z,71.14
2022-10-04T20:50:43.419Z,71.28
2022-10-04T20:53:21.329Z,71.42
2022-10-04T20:55:54.076Z,71.61
2022-10-04T20:58:35.530Z,71.63
2022-10-04T21:01:39.836Z,71.70
2022-10-04T21:04:21.528Z,71.53
2022-10-04T21:06:56.666Z,71.70
2022-10-04T21:09:28.972Z,71.54
2022-10-04T21:12:00.383Z,71.75
2022-10-04T21:14:32.828Z,71.98
2022-10-04T21:17:04.692Z,72.17
2022-10-04T21:19:55.102Z,73.18
2022-10-04T21:22:39.615Z,74.84
2022-10-04T21:25:32.088Z,74.82
2022-10-04T21:28:30.792Z,74.05
2022-10-04T21:31:03.017Z,72.84
2022-10-04T21:33:37.367Z,71.95
2022-10-04T21:36:09.213Z,71.91
2022-10-04T21:38:39.933Z,72.44
2022-10-04T21:41:11.011Z,72.17
2022-10-04T21:43:41.651Z,72.40
2022-10-04T21:46:15.323Z,71.71
2022-10-04T21:48:48.724Z,71.05
2022-10-04T21:51:19.474Z,70.51
2022-10-04T21:53:50.233Z,71.09
2022-10-04T21:56:20.873Z,71.36
2022-10-04T21:58:51.503Z,70.84
2022-10-04T22:01:22.242Z,70.78
2022-10-04T22:03:53.709Z,70.62
2022-10-04T22:06:24.374Z,69.89
2022-10-04T22:08:55.255Z,69.71
2022-10-04T22:11:25.830Z,70.08
2022-10-04T22:13:56.482Z,70.42
2022-10-04T22:16:27.748Z,70.52
2022-10-04T22:18:58.734Z,70.43
2022-10-04T22:21:29.609Z,70.10
2022-10-04T22:24:00.908Z,70.03
2022-10-04T22:26:32.232Z,70.29
2022-10-04T22:29:03.064Z,70.45
2022-10-04T22:31:33.774Z,70.40
2022-10-04T22:34:05.310Z,70.77
2022-10-04T22:36:40.180Z,71.22
2022-10-04T22:39:16.557Z,71.26
2022-10-04T22:41:49.129Z,70.99
2022-10-04T22:44:23.647Z,71.34
2022-10-04T22:46:56.496Z,70.99
2022-10-04T22:49:29.042Z,71.34
2022-10-04T22:52:02.226Z,71.42
2022-10-04T22:54:35.199Z,71.20
2022-10-04T22:57:05.997Z,71.11
2022-10-04T22:59:40.061Z,70.55
2022-10-04T23:02:16.581Z,70.75
2022-10-04T23:04:52.211Z,70.36
2022-10-04T23:07:23.386Z,70.58
2022-10-04T23:09:54.204Z,70.90
2022-10-04T23:12:24.952Z,71.31
2022-10-04T23:14:55.735Z,70.73
2022-10-04T23:17:28.693Z,70.39
2022-10-04T23:20:02.445Z,70.73
2022-10-04T23:22:33.157Z,71.12
2022-10-04T23:25:04.251Z,70.85
2022-10-04T23:27:35.117Z,70.71
2022-10-04T23:30:07.781Z,70.75
2022-10-04T23:32:38.379Z,70.80
2022-10-04T23:35:19.454Z,70.43
2022-10-04T23:37:51.041Z,70.73
2022-10-04T23:40:24.670Z,70.70
2022-10-04T23:42:57.866Z,70.07
2022-10-04T23:45:28.833Z,70.03
2022-10-04T23:48:01.469Z,70.21
2022-10-04T23:50:35.034Z,70.27
2022-10-04T23:53:07.654Z,70.33
2022-10-04T23:55:38.567Z,70.71
2022-10-04T23:58:16.779Z,71.12
